sensor_id;sensor_type;location;lat;lon;timestamp;P1;durP1;ratioP1;P2;durP2;ratioP2
38208;SDS011;24016;52.102;11.584;2022-07-05T00:01:07;4.63;;;1.40;;
38208;SDS011;24016;52.102;11.584;2022-07-05T00:03:33;5.80;;;1.55;;
38208;SDS011;24016;52.102;11.584;2022-07-05T00:05:59;4.97;;;1.50;;
38208;SDS011;24016;52.102;11.584;2022-07-05T00:08:25;4.15;;;1.40;;
38208;SDS011;24016;52.102;11.584;2022-07-05T00:10:51;4.68;;;1.60;;
38208;SDS011;24016;52.102;11.584;2022-07-05T00:13:17;7.63;;;1.80;;
38208;SDS011;24016;52.102;11.584;2022-07-05T00:15:42;3.05;;;1.30;;
38208;SDS011;24016;52.102;11.584;2022-07-05T00:18:08;6.85;;;1.98;;
38208;SDS011;24016;52.102;11.584;2022-07-05T00:20:34;5.28;;;1.65;;
38208;SDS011;24016;52.102;11.584;2022-07-05T00:22:59;5.38;;;1.50;;
38208;SDS011;24016;52.102;11.584;2022-07-05T00:25:25;3.13;;;1.50;;
38208;SDS011;24016;52.102;11.584;2022-07-05T00:27:51;4.72;;;1.50;;
38208;SDS011;24016;52.102;11.584;2022-07-05T00:30:18;5.18;;;1.95;;
38208;SDS011;24016;52.102;11.584;2022-07-05T00:32:44;3.10;;;1.48;;
38208;SDS011;24016;52.102;11.584;2022-07-05T00:35:10;2.50;;;1.40;;
38208;SDS011;24016;52.102;11.584;2022-07-05T00:37:35;4.53;;;1.88;;
38208;SDS011;24016;52.102;11.584;2022-07-05T00:40:01;4.10;;;1.67;;
38208;SDS011;24016;52.102;11.584;2022-07-05T00:42:28;2.88;;;1.63;;
38208;SDS011;24016;52.102;11.584;2022-07-05T00:44:53;6.03;;;1.92;;
38208;SDS011;24016;52.102;11.584;2022-07-05T00:47:19;3.10;;;1.73;;
38208;SDS011;24016;52.102;11.584;2022-07-05T00:49:44;3.15;;;1.70;;
38208;SDS011;24016;52.102;11.584;2022-07-05T00:52:10;4.88;;;1.73;;
38208;SDS011;24016;52.102;11.584;2022-07-05T00:54:37;3.22;;;1.77;;
38208;SDS011;24016;52.102;11.584;2022-07-05T00:57:03;4.00;;;1.73;;
38208;SDS011;24016;52.102;11.584;2022-07-05T00:59:30;6.00;;;1.92;;
38208;SDS011;24016;52.102;11.584;2022-07-05T01:01:55;4.35;;;1.83;;
38208;SDS011;24016;52.102;11.584;2022-07-05T01:04:22;4.55;;;2.00;;
38208;SDS011;24016;52.102;11.584;2022-07-05T01:06:48;3.85;;;2.10;;
38208;SDS011;24016;52.102;11.584;2022-07-05T01:09:15;2.65;;;1.83;;
38208;SDS011;24016;52.102;11.584;2022-07-05T01:11:50;4.20;;;1.75;;
38208;SDS011;24016;52.102;11.584;2022-07-05T01:14:17;6.38;;;2.20;;
38208;SDS011;24016;52.102;11.584;2022-07-05T01:16:43;5.03;;;1.83;;
38208;SDS011;24016;52.102;11.584;2022-07-05T01:19:10;3.45;;;1.75;;
38208;SDS011;24016;52.102;11.584;2022-07-05T01:21:40;5.68;;;2.08;;
38208;SDS011;24016;52.102;11.584;2022-07-05T01:24:11;6.55;;;2.10;;
38208;SDS011;24016;52.102;11.584;2022-07-05T01:26:38;5.85;;;2.13;;
38208;SDS011;24016;52.102;11.584;2022-07-05T01:29:05;5.20;;;1.92;;
38208;SDS011;24016;52.102;11.584;2022-07-05T01:31:31;3.42;;;2.13;;
38208;SDS011;24016;52.102;11.584;2022-07-05T01:33:58;8.35;;;2.20;;
38208;SDS011;24016;52.102;11.584;2022-07-05T01:36:23;3.75;;;2.30;;
38208;SDS011;24016;52.102;11.584;2022-07-05T01:38:50;4.75;;;2.03;;
38208;SDS011;24016;52.102;11.584;2022-07-05T01:41:15;4.80;;;2.42;;
38208;SDS011;24016;52.102;11.584;2022-07-05T01:43:41;4.60;;;2.30;;
38208;SDS011;24016;52.102;11.584;2022-07-05T01:46:07;3.75;;;2.22;;
38208;SDS011;24016;52.102;11.584;2022-07-05T01:48:35;3.42;;;2.00;;
38208;SDS011;24016;52.102;11.584;2022-07-05T01:51:07;3.78;;;2.42;;
38208;SDS011;24016;52.102;11.584;2022-07-05T01:53:53;6.75;;;1.90;;
38208;SDS011;24016;52.102;11.584;2022-07-05T01:56:19;7.32;;;2.65;;
38208;SDS011;24016;52.102;11.584;2022-07-05T01:58:45;7.28;;;2.53;;
38208;SDS011;24016;52.102;11.584;2022-07-05T02:01:10;5.53;;;2.45;;
38208;SDS011;24016;52.102;11.584;2022-07-05T02:03:37;3.97;;;2.00;;
38208;SDS011;24016;52.102;11.584;2022-07-05T02:06:04;4.72;;;2.10;;
38208;SDS011;24016;52.102;11.584;2022-07-05T02:08:31;3.25;;;2.50;;
38208;SDS011;24016;52.102;11.584;2022-07-05T02:10:57;6.18;;;2.67;;
38208;SDS011;24016;52.102;11.584;2022-07-05T02:13:23;3.80;;;2.20;;
38208;SDS011;24016;52.102;11.584;2022-07-05T02:15:48;5.38;;;2.40;;
38208;SDS011;24016;52.102;11.584;2022-07-05T02:18:14;5.88;;;2.60;;
38208;SDS011;24016;52.102;11.584;2022-07-05T02:20:40;5.78;;;2.30;;
38208;SDS011;24016;52.102;11.584;2022-07-05T02:23:06;4.47;;;2.70;;
38208;SDS011;24016;52.102;11.584;2022-07-05T02:25:32;6.53;;;2.45;;
38208;SDS011;24016;52.102;11.584;2022-07-05T02:27:58;5.47;;;2.55;;
38208;SDS011;24016;52.102;11.584;2022-07-05T02:30:24;4.93;;;2.40;;
38208;SDS011;24016;52.102;11.584;2022-07-05T02:32:50;4.72;;;2.60;;
38208;SDS011;24016;52.102;11.584;2022-07-05T02:35:15;5.65;;;2.70;;
38208;SDS011;24016;52.102;11.584;2022-07-05T02:37:41;6.55;;;2.60;;
38208;SDS011;24016;52.102;11.584;2022-07-05T02:40:07;4.03;;;2.50;;
38208;SDS011;24016;52.102;11.584;2022-07-05T02:42:34;5.43;;;2.67;;
38208;SDS011;24016;52.102;11.584;2022-07-05T02:44:59;4.40;;;2.40;;
38208;SDS011;24016;52.102;11.584;2022-07-05T02:47:25;3.72;;;2.20;;
38208;SDS011;24016;52.102;11.584;2022-07-05T02:49:50;7.13;;;2.92;;
38208;SDS011;24016;52.102;11.584;2022-07-05T02:52:16;8.90;;;2.50;;
38208;SDS011;24016;52.102;11.584;2022-07-05T02:54:42;5.03;;;2.33;;
38208;SDS011;24016;52.102;11.584;2022-07-05T02:57:07;4.07;;;2.30;;
38208;SDS011;24016;52.102;11.584;2022-07-05T02:59:33;5.53;;;2.45;;
38208;SDS011;24016;52.102;11.584;2022-07-05T03:01:58;4.25;;;2.70;;
38208;SDS011;24016;52.102;11.584;2022-07-05T03:04:24;6.43;;;2.45;;
38208;SDS011;24016;52.102;11.584;2022-07-05T03:06:50;5.63;;;2.70;;
38208;SDS011;24016;52.102;11.584;2022-07-05T03:09:15;6.90;;;2.90;;
38208;SDS011;24016;52.102;11.584;2022-07-05T03:11:40;8.30;;;3.10;;
38208;SDS011;24016;52.102;11.584;2022-07-05T03:14:06;7.63;;;2.50;;
38208;SDS011;24016;52.102;11.584;2022-07-05T03:16:31;7.68;;;3.03;;
38208;SDS011;24016;52.102;11.584;2022-07-05T03:18:57;5.15;;;2.80;;
38208;SDS011;24016;52.102;11.584;2022-07-05T03:21:23;6.80;;;3.03;;
38208;SDS011;24016;52.102;11.584;2022-07-05T03:23:48;9.18;;;2.92;;
38208;SDS011;24016;52.102;11.584;2022-07-05T03:26:14;7.72;;;3.28;;
38208;SDS011;24016;52.102;11.584;2022-07-05T03:28:39;5.68;;;3.05;;
38208;SDS011;24016;52.102;11.584;2022-07-05T03:31:05;6.25;;;2.95;;
38208;SDS011;24016;52.102;11.584;2022-07-05T03:33:31;8.05;;;3.28;;
38208;SDS011;24016;52.102;11.584;2022-07-05T03:35:56;10.15;;;3.22;;
38208;SDS011;24016;52.102;11.584;2022-07-05T03:38:22;3.97;;;3.05;;
38208;SDS011;24016;52.102;11.584;2022-07-05T03:40:48;7.88;;;3.58;;
38208;SDS011;24016;52.102;11.584;2022-07-05T03:43:13;6.20;;;3.38;;
38208;SDS011;24016;52.102;11.584;2022-07-05T03:45:39;6.53;;;3.58;;
38208;SDS011;24016;52.102;11.584;2022-07-05T03:48:05;5.85;;;2.90;;
38208;SDS011;24016;52.102;11.584;2022-07-05T03:50:30;6.20;;;3.00;;
38208;SDS011;24016;52.102;11.584;2022-07-05T03:52:56;5.55;;;3.30;;
38208;SDS011;24016;52.102;11.584;2022-07-05T03:55:22;6.45;;;2.90;;
38208;SDS011;24016;52.102;11.584;2022-07-05T03:57:47;8.35;;;3.25;;
38208;SDS011;24016;52.102;11.584;2022-07-05T04:00:13;5.75;;;3.38;;
38208;SDS011;24016;52.102;11.584;2022-07-05T04:02:39;9.65;;;2.90;;
38208;SDS011;24016;52.102;11.584;2022-07-05T04:05:05;5.75;;;3.00;;
38208;SDS011;24016;52.102;11.584;2022-07-05T04:07:31;5.97;;;3.05;;
38208;SDS011;24016;52.102;11.584;2022-07-05T04:09:57;7.60;;;3.25;;
38208;SDS011;24016;52.102;11.584;2022-07-05T04:12:23;4.60;;;2.47;;
38208;SDS011;24016;52.102;11.584;2022-07-05T04:14:48;5.75;;;2.88;;
38208;SDS011;24016;52.102;11.584;2022-07-05T04:17:14;8.02;;;2.88;;
38208;SDS011;24016;52.102;11.584;2022-07-05T04:19:39;6.32;;;2.85;;
38208;SDS011;24016;52.102;11.584;2022-07-05T04:22:05;6.55;;;2.90;;
38208;SDS011;24016;52.102;11.584;2022-07-05T04:24:30;8.55;;;3.70;;
38208;SDS011;24016;52.102;11.584;2022-07-05T04:26:56;6.90;;;2.83;;
38208;SDS011;24016;52.102;11.584;2022-07-05T04:29:22;6.75;;;3.15;;
38208;SDS011;24016;52.102;11.584;2022-07-05T04:31:47;6.05;;;3.08;;
38208;SDS011;24016;52.102;11.584;2022-07-05T04:34:13;5.53;;;2.72;;
38208;SDS011;24016;52.102;11.584;2022-07-05T04:36:39;6.13;;;2.50;;
38208;SDS011;24016;52.102;11.584;2022-07-05T04:39:05;6.53;;;2.83;;
38208;SDS011;24016;52.102;11.584;2022-07-05T04:41:31;7.15;;;2.50;;
38208;SDS011;24016;52.102;11.584;2022-07-05T04:43:57;11.02;;;2.75;;
38208;SDS011;24016;52.102;11.584;2022-07-05T04:46:22;6.47;;;2.60;;
38208;SDS011;24016;52.102;11.584;2022-07-05T04:48:48;7.85;;;2.53;;
38208;SDS011;24016;52.102;11.584;2022-07-05T04:51:13;7.38;;;2.88;;
38208;SDS011;24016;52.102;11.584;2022-07-05T04:53:39;4.88;;;2.50;;
38208;SDS011;24016;52.102;11.584;2022-07-05T04:56:05;5.80;;;2.33;;
38208;SDS011;24016;52.102;11.584;2022-07-05T04:58:31;4.85;;;2.40;;
38208;SDS011;24016;52.102;11.584;2022-07-05T05:00:56;6.15;;;2.47;;
38208;SDS011;24016;52.102;11.584;2022-07-05T05:03:22;5.05;;;2.28;;
38208;SDS011;24016;52.102;11.584;2022-07-05T05:05:47;6.68;;;2.58;;
38208;SDS011;24016;52.102;11.584;2022-07-05T05:08:13;7.45;;;2.15;;
38208;SDS011;24016;52.102;11.584;2022-07-05T05:10:38;5.88;;;2.20;;
38208;SDS011;24016;52.102;11.584;2022-07-05T05:13:04;6.32;;;1.98;;
38208;SDS011;24016;52.102;11.584;2022-07-05T05:15:30;5.43;;;1.95;;
38208;SDS011;24016;52.102;11.584;2022-07-05T05:17:55;3.92;;;1.85;;
38208;SDS011;24016;52.102;11.584;2022-07-05T05:20:21;5.35;;;2.00;;
38208;SDS011;24016;52.102;11.584;2022-07-05T05:22:46;5.15;;;2.00;;
38208;SDS011;24016;52.102;11.584;2022-07-05T05:25:12;3.42;;;1.83;;
38208;SDS011;24016;52.102;11.584;2022-07-05T05:27:42;4.57;;;1.90;;
38208;SDS011;24016;52.102;11.584;2022-07-05T05:30:09;10.02;;;2.08;;
38208;SDS011;24016;52.102;11.584;2022-07-05T05:32:35;5.32;;;1.88;;
38208;SDS011;24016;52.102;11.584;2022-07-05T05:35:00;3.67;;;1.70;;
38208;SDS011;24016;52.102;11.584;2022-07-05T05:37:26;4.60;;;1.60;;
38208;SDS011;24016;52.102;11.584;2022-07-05T05:39:51;4.75;;;1.55;;
38208;SDS011;24016;52.102;11.584;2022-07-05T05:42:17;2.20;;;1.30;;
38208;SDS011;24016;52.102;11.584;2022-07-05T05:44:43;4.50;;;1.65;;
38208;SDS011;24016;52.102;11.584;2022-07-05T05:47:08;3.25;;;1.58;;
38208;SDS011;24016;52.102;11.584;2022-07-05T05:49:34;2.50;;;1.45;;
38208;SDS011;24016;52.102;11.584;2022-07-05T05:51:59;3.53;;;1.70;;
38208;SDS011;24016;52.102;11.584;2022-07-05T05:54:26;7.15;;;1.40;;
38208;SDS011;24016;52.102;11.584;2022-07-05T05:56:51;4.50;;;1.92;;
38208;SDS011;24016;52.102;11.584;2022-07-05T05:59:17;2.47;;;1.10;;
38208;SDS011;24016;52.102;11.584;2022-07-05T06:01:42;3.17;;;1.35;;
38208;SDS011;24016;52.102;11.584;2022-07-05T06:04:08;2.22;;;1.20;;
38208;SDS011;24016;52.102;11.584;2022-07-05T06:06:33;2.72;;;1.40;;
38208;SDS011;24016;52.102;11.584;2022-07-05T06:08:59;9.80;;;1.50;;
38208;SDS011;24016;52.102;11.584;2022-07-05T06:11:24;4.63;;;1.40;;
38208;SDS011;24016;52.102;11.584;2022-07-05T06:13:50;4.88;;;1.38;;
38208;SDS011;24016;52.102;11.584;2022-07-05T06:16:15;3.28;;;1.45;;
38208;SDS011;24016;52.102;11.584;2022-07-05T06:18:41;3.40;;;1.30;;
38208;SDS011;24016;52.102;11.584;2022-07-05T06:21:06;3.67;;;1.10;;
38208;SDS011;24016;52.102;11.584;2022-07-05T06:23:32;2.95;;;1.02;;
38208;SDS011;24016;52.102;11.584;2022-07-05T06:25:57;5.20;;;1.77;;
38208;SDS011;24016;52.102;11.584;2022-07-05T06:28:23;2.53;;;1.10;;
38208;SDS011;24016;52.102;11.584;2022-07-05T06:30:49;2.42;;;1.30;;
38208;SDS011;24016;52.102;11.584;2022-07-05T06:33:14;3.13;;;1.15;;
38208;SDS011;24016;52.102;11.584;2022-07-05T06:35:40;2.83;;;1.15;;
38208;SDS011;24016;52.102;11.584;2022-07-05T06:38:07;2.88;;;1.20;;
38208;SDS011;24016;52.102;11.584;2022-07-05T06:40:34;4.47;;;1.40;;
38208;SDS011;24016;52.102;11.584;2022-07-05T06:43:04;4.50;;;1.40;;
38208;SDS011;24016;52.102;11.584;2022-07-05T06:45:31;6.35;;;1.45;;
38208;SDS011;24016;52.102;11.584;2022-07-05T06:48:07;2.92;;;1.27;;
38208;SDS011;24016;52.102;11.584;2022-07-05T06:50:35;3.92;;;1.63;;
38208;SDS011;24016;52.102;11.584;2022-07-05T06:53:02;7.15;;;1.20;;
38208;SDS011;24016;52.102;11.584;2022-07-05T06:55:28;4.07;;;1.20;;
38208;SDS011;24016;52.102;11.584;2022-07-05T06:57:57;3.78;;;1.10;;
38208;SDS011;24016;52.102;11.584;2022-07-05T07:00:24;3.15;;;1.35;;
38208;SDS011;24016;52.102;11.584;2022-07-05T07:02:50;5.03;;;1.38;;
38208;SDS011;24016;52.102;11.584;2022-07-05T07:05:15;3.80;;;1.35;;
38208;SDS011;24016;52.102;11.584;2022-07-05T07:07:41;2.08;;;1.10;;
38208;SDS011;24016;52.102;11.584;2022-07-05T07:10:25;4.43;;;1.30;;
38208;SDS011;24016;52.102;11.584;2022-07-05T07:12:51;3.00;;;1.13;;
38208;SDS011;24016;52.102;11.584;2022-07-05T07:15:16;5.10;;;1.20;;
38208;SDS011;24016;52.102;11.584;2022-07-05T07:17:42;3.90;;;1.20;;
38208;SDS011;24016;52.102;11.584;2022-07-05T07:20:08;4.57;;;1.00;;
38208;SDS011;24016;52.102;11.584;2022-07-05T07:22:33;6.95;;;1.50;;
38208;SDS011;24016;52.102;11.584;2022-07-05T07:24:59;3.10;;;1.10;;
38208;SDS011;24016;52.102;11.584;2022-07-05T07:27:24;4.30;;;1.15;;
38208;SDS011;24016;52.102;11.584;2022-07-05T07:29:50;3.28;;;1.30;;
38208;SDS011;24016;52.102;11.584;2022-07-05T07:32:15;3.33;;;1.20;;
38208;SDS011;24016;52.102;11.584;2022-07-05T07:34:43;2.67;;;1.20;;
38208;SDS011;24016;52.102;11.584;2022-07-05T07:37:09;3.83;;;1.30;;
38208;SDS011;24016;52.102;11.584;2022-07-05T07:39:38;6.45;;;1.63;;
38208;SDS011;24016;52.102;11.584;2022-07-05T07:42:04;4.57;;;1.55;;
38208;SDS011;24016;52.102;11.584;2022-07-05T07:44:30;3.15;;;1.30;;
38208;SDS011;24016;52.102;11.584;2022-07-05T07:46:55;7.80;;;1.65;;
38208;SDS011;24016;52.102;11.584;2022-07-05T07:49:21;4.32;;;1.50;;
38208;SDS011;24016;52.102;11.584;2022-07-05T07:51:47;1.60;;;1.20;;
38208;SDS011;24016;52.102;11.584;2022-07-05T07:54:13;2.00;;;1.20;;
38208;SDS011;24016;52.102;11.584;2022-07-05T07:56:38;6.60;;;1.45;;
38208;SDS011;24016;52.102;11.584;2022-07-05T07:59:04;6.47;;;1.98;;
38208;SDS011;24016;52.102;11.584;2022-07-05T08:01:29;3.83;;;1.33;;
38208;SDS011;24016;52.102;11.584;2022-07-05T08:03:56;3.15;;;1.50;;
38208;SDS011;24016;52.102;11.584;2022-07-05T08:06:21;2.67;;;1.10;;
38208;SDS011;24016;52.102;11.584;2022-07-05T08:08:47;5.53;;;1.65;;
38208;SDS011;24016;52.102;11.584;2022-07-05T08:11:13;2.67;;;1.00;;
38208;SDS011;24016;52.102;11.584;2022-07-05T08:13:39;5.25;;;1.13;;
38208;SDS011;24016;52.102;11.584;2022-07-05T08:16:06;4.15;;;1.58;;
38208;SDS011;24016;52.102;11.584;2022-07-05T08:18:33;4.60;;;1.60;;
38208;SDS011;24016;52.102;11.584;2022-07-05T08:21:17;3.17;;;1.23;;
38208;SDS011;24016;52.102;11.584;2022-07-05T08:24:03;4.07;;;1.13;;
38208;SDS011;24016;52.102;11.584;2022-07-05T08:26:29;5.28;;;1.55;;
38208;SDS011;24016;52.102;11.584;2022-07-05T08:28:57;5.55;;;1.58;;
38208;SDS011;24016;52.102;11.584;2022-07-05T08:31:24;5.25;;;1.60;;
38208;SDS011;24016;52.102;11.584;2022-07-05T08:33:51;2.97;;;1.27;;
38208;SDS011;24016;52.102;11.584;2022-07-05T08:36:17;4.20;;;1.40;;
38208;SDS011;24016;52.102;11.584;2022-07-05T08:38:42;5.85;;;1.38;;
38208;SDS011;24016;52.102;11.584;2022-07-05T08:41:08;4.82;;;1.60;;
38208;SDS011;24016;52.102;11.584;2022-07-05T08:43:35;4.38;;;1.70;;
38208;SDS011;24016;52.102;11.584;2022-07-05T08:46:04;3.75;;;1.15;;
38208;SDS011;24016;52.102;11.584;2022-07-05T08:48:33;3.40;;;1.00;;
38208;SDS011;24016;52.102;11.584;2022-07-05T08:51:02;4.03;;;1.40;;
38208;SDS011;24016;52.102;11.584;2022-07-05T08:53:28;5.55;;;1.40;;
38208;SDS011;24016;52.102;11.584;2022-07-05T08:55:54;6.75;;;1.55;;
38208;SDS011;24016;52.102;11.584;2022-07-05T08:58:20;4.65;;;1.40;;
38208;SDS011;24016;52.102;11.584;2022-07-05T09:00:45;4.70;;;1.17;;
38208;SDS011;24016;52.102;11.584;2022-07-05T09:03:11;7.15;;;1.70;;
38208;SDS011;24016;52.102;11.584;2022-07-05T09:05:42;4.97;;;2.00;;
38208;SDS011;24016;52.102;11.584;2022-07-05T09:08:09;5.18;;;1.45;;
38208;SDS011;24016;52.102;11.584;2022-07-05T09:10:37;3.92;;;1.30;;
38208;SDS011;24016;52.102;11.584;2022-07-05T09:13:04;5.50;;;1.70;;
38208;SDS011;24016;52.102;11.584;2022-07-05T09:15:30;5.68;;;1.70;;
38208;SDS011;24016;52.102;11.584;2022-07-05T09:17:55;2.63;;;1.20;;
38208;SDS011;24016;52.102;11.584;2022-07-05T09:20:21;4.63;;;1.50;;
38208;SDS011;24016;52.102;11.584;2022-07-05T09:22:50;6.47;;;1.52;;
38208;SDS011;24016;52.102;11.584;2022-07-05T09:25:21;4.30;;;1.52;;
38208;SDS011;24016;52.102;11.584;2022-07-05T09:27:58;4.30;;;1.20;;
38208;SDS011;24016;52.102;11.584;2022-07-05T09:30:33;3.63;;;1.50;;
38208;SDS011;24016;52.102;11.584;2022-07-05T09:33:08;6.50;;;1.90;;
38208;SDS011;24016;52.102;11.584;2022-07-05T09:35:39;3.05;;;1.67;;
38208;SDS011;24016;52.102;11.584;2022-07-05T09:38:06;4.10;;;1.25;;
38208;SDS011;24016;52.102;11.584;2022-07-05T09:40:51;3.65;;;1.55;;
38208;SDS011;24016;52.102;11.584;2022-07-05T09:43:20;4.57;;;1.30;;
38208;SDS011;24016;52.102;11.584;2022-07-05T09:45:57;3.60;;;1.50;;
38208;SDS011;24016;52.102;11.584;2022-07-05T09:48:25;5.15;;;1.38;;
38208;SDS011;24016;52.102;11.584;2022-07-05T09:50:52;2.83;;;1.40;;
38208;SDS011;24016;52.102;11.584;2022-07-05T09:53:45;4.82;;;1.50;;
38208;SDS011;24016;52.102;11.584;2022-07-05T09:56:15;3.97;;;1.58;;
38208;SDS011;24016;52.102;11.584;2022-07-05T09:58:42;3.50;;;1.65;;
38208;SDS011;24016;52.102;11.584;2022-07-05T10:01:24;3.80;;;1.60;;
38208;SDS011;24016;52.102;11.584;2022-07-05T10:04:01;3.03;;;1.55;;
38208;SDS011;24016;52.102;11.584;2022-07-05T10:06:27;3.92;;;1.75;;
38208;SDS011;24016;52.102;11.584;2022-07-05T10:08:56;2.90;;;1.50;;
38208;SDS011;24016;52.102;11.584;2022-07-05T10:11:22;3.35;;;1.52;;
38208;SDS011;24016;52.102;11.584;2022-07-05T10:13:54;5.93;;;1.83;;
38208;SDS011;24016;52.102;11.584;2022-07-05T10:16:21;3.60;;;1.50;;
38208;SDS011;24016;52.102;11.584;2022-07-05T10:18:50;3.30;;;1.42;;
38208;SDS011;24016;52.102;11.584;2022-07-05T10:21:17;4.35;;;1.70;;
38208;SDS011;24016;52.102;11.584;2022-07-05T10:23:44;4.03;;;1.60;;
38208;SDS011;24016;52.102;11.584;2022-07-05T10:26:12;4.00;;;1.90;;
38208;SDS011;24016;52.102;11.584;2022-07-05T10:28:39;4.63;;;1.92;;
38208;SDS011;24016;52.102;11.584;2022-07-05T10:31:06;4.22;;;1.60;;
38208;SDS011;24016;52.102;11.584;2022-07-05T10:33:34;3.38;;;1.60;;
38208;SDS011;24016;52.102;11.584;2022-07-05T10:36:00;4.13;;;1.52;;
38208;SDS011;24016;52.102;11.584;2022-07-05T10:38:26;5.55;;;1.63;;
38208;SDS011;24016;52.102;11.584;2022-07-05T10:40:53;4.47;;;1.67;;
38208;SDS011;24016;52.102;11.584;2022-07-05T10:43:22;2.90;;;1.63;;
38208;SDS011;24016;52.102;11.584;2022-07-05T10:45:49;4.68;;;1.70;;
38208;SDS011;24016;52.102;11.584;2022-07-05T10:48:20;4.25;;;1.50;;
38208;SDS011;24016;52.102;11.584;2022-07-05T10:50:49;3.97;;;1.90;;
38208;SDS011;24016;52.102;11.584;2022-07-05T10:53:22;4.30;;;1.48;;
38208;SDS011;24016;52.102;11.584;2022-07-05T10:55:53;2.22;;;1.40;;
38208;SDS011;24016;52.102;11.584;2022-07-05T11:03:44;2.88;;;1.40;;
38208;SDS011;24016;52.102;11.584;2022-07-05T11:11:29;2.17;;;1.45;;
38208;SDS011;24016;52.102;11.584;2022-07-05T11:13:56;4.32;;;1.92;;
38208;SDS011;24016;52.102;11.584;2022-07-05T11:16:36;3.05;;;1.50;;
38208;SDS011;24016;52.102;11.584;2022-07-05T11:19:04;4.88;;;1.63;;
38208;SDS011;24016;52.102;11.584;2022-07-05T11:21:34;7.28;;;1.83;;
38208;SDS011;24016;52.102;11.584;2022-07-05T11:26:51;5.35;;;2.00;;
38208;SDS011;24016;52.102;11.584;2022-07-05T11:32:12;4.13;;;1.70;;
38208;SDS011;24016;52.102;11.584;2022-07-05T11:34:46;3.20;;;1.98;;
38208;SDS011;24016;52.102;11.584;2022-07-05T11:37:26;3.45;;;1.83;;
38208;SDS011;24016;52.102;11.584;2022-07-05T11:42:30;4.28;;;1.83;;
38208;SDS011;24016;52.102;11.584;2022-07-05T11:44:56;3.95;;;1.83;;
38208;SDS011;24016;52.102;11.584;2022-07-05T11:47:22;7.80;;;1.98;;
38208;SDS011;24016;52.102;11.584;2022-07-05T11:49:55;6.95;;;1.70;;
38208;SDS011;24016;52.102;11.584;2022-07-05T11:52:28;4.43;;;1.73;;
38208;SDS011;24016;52.102;11.584;2022-07-05T11:54:58;4.15;;;2.15;;
38208;SDS011;24016;52.102;11.584;2022-07-05T11:57:25;5.07;;;1.80;;
38208;SDS011;24016;52.102;11.584;2022-07-05T11:59:51;5.13;;;1.70;;
38208;SDS011;24016;52.102;11.584;2022-07-05T12:02:17;4.20;;;1.33;;
38208;SDS011;24016;52.102;11.584;2022-07-05T12:04:47;6.32;;;1.50;;
38208;SDS011;24016;52.102;11.584;2022-07-05T12:07:29;3.60;;;1.73;;
38208;SDS011;24016;52.102;11.584;2022-07-05T12:09:56;4.63;;;1.50;;
38208;SDS011;24016;52.102;11.584;2022-07-05T12:12:41;2.78;;;1.50;;
38208;SDS011;24016;52.102;11.584;2022-07-05T12:15:08;4.00;;;1.60;;
38208;SDS011;24016;52.102;11.584;2022-07-05T12:17:34;2.83;;;1.33;;
38208;SDS011;24016;52.102;11.584;2022-07-05T12:20:00;5.10;;;1.45;;
38208;SDS011;24016;52.102;11.584;2022-07-05T12:22:39;5.82;;;1.50;;
38208;SDS011;24016;52.102;11.584;2022-07-05T12:25:13;4.43;;;1.88;;
38208;SDS011;24016;52.102;11.584;2022-07-05T12:27:40;6.28;;;1.50;;
38208;SDS011;24016;52.102;11.584;2022-07-05T12:30:07;2.88;;;1.40;;
38208;SDS011;24016;52.102;11.584;2022-07-05T12:35:34;4.40;;;1.60;;
38208;SDS011;24016;52.102;11.584;2022-07-05T12:38:11;4.50;;;1.70;;
38208;SDS011;24016;52.102;11.584;2022-07-05T12:40:40;3.00;;;1.58;;
38208;SDS011;24016;52.102;11.584;2022-07-05T12:43:10;5.65;;;1.60;;
38208;SDS011;24016;52.102;11.584;2022-07-05T12:45:42;2.88;;;1.20;;
38208;SDS011;24016;52.102;11.584;2022-07-05T12:48:29;3.63;;;1.45;;
38208;SDS011;24016;52.102;11.584;2022-07-05T12:50:57;3.05;;;1.50;;
38208;SDS011;24016;52.102;11.584;2022-07-05T12:53:23;3.33;;;1.20;;
38208;SDS011;24016;52.102;11.584;2022-07-05T12:56:08;4.47;;;1.30;;
38208;SDS011;24016;52.102;11.584;2022-07-05T12:58:57;2.45;;;1.40;;
38208;SDS011;24016;52.102;11.584;2022-07-05T13:01:25;2.25;;;1.20;;
38208;SDS011;24016;52.102;11.584;2022-07-05T13:03:59;4.47;;;1.20;;
38208;SDS011;24016;52.102;11.584;2022-07-05T13:09:36;4.35;;;1.10;;
38208;SDS011;24016;52.102;11.584;2022-07-05T13:12:05;3.33;;;1.30;;
38208;SDS011;24016;52.102;11.584;2022-07-05T13:14:36;2.15;;;1.30;;
38208;SDS011;24016;52.102;11.584;2022-07-05T13:17:04;3.70;;;1.30;;
38208;SDS011;24016;52.102;11.584;2022-07-05T13:19:30;4.78;;;1.40;;
38208;SDS011;24016;52.102;11.584;2022-07-05T13:21:55;2.75;;;1.10;;
38208;SDS011;24016;52.102;11.584;2022-07-05T13:24:21;3.25;;;1.38;;
38208;SDS011;24016;52.102;11.584;2022-07-05T13:26:46;2.05;;;1.27;;
38208;SDS011;24016;52.102;11.584;2022-07-05T13:29:12;4.13;;;1.20;;
38208;SDS011;24016;52.102;11.584;2022-07-05T13:31:37;2.28;;;1.10;;
38208;SDS011;24016;52.102;11.584;2022-07-05T13:34:03;3.42;;;1.10;;
38208;SDS011;24016;52.102;11.584;2022-07-05T13:36:28;3.75;;;1.58;;
38208;SDS011;24016;52.102;11.584;2022-07-05T13:38:55;2.97;;;1.27;;
38208;SDS011;24016;52.102;11.584;2022-07-05T13:41:20;1.75;;;1.10;;
38208;SDS011;24016;52.102;11.584;2022-07-05T13:43:46;3.83;;;1.27;;
38208;SDS011;24016;52.102;11.584;2022-07-05T13:46:12;4.55;;;1.25;;
38208;SDS011;24016;52.102;11.584;2022-07-05T13:48:38;1.75;;;1.10;;
38208;SDS011;24016;52.102;11.584;2022-07-05T13:51:04;2.47;;;1.40;;
38208;SDS011;24016;52.102;11.584;2022-07-05T13:53:30;2.72;;;1.20;;
38208;SDS011;24016;52.102;11.584;2022-07-05T13:55:56;8.65;;;1.40;;
38208;SDS011;24016;52.102;11.584;2022-07-05T13:58:21;3.10;;;1.20;;
38208;SDS011;24016;52.102;11.584;2022-07-05T14:00:47;3.63;;;1.50;;
38208;SDS011;24016;52.102;11.584;2022-07-05T14:03:13;2.67;;;1.20;;
38208;SDS011;24016;52.102;11.584;2022-07-05T14:05:40;5.03;;;1.08;;
38208;SDS011;24016;52.102;11.584;2022-07-05T14:08:06;7.63;;;1.35;;
38208;SDS011;24016;52.102;11.584;2022-07-05T14:10:31;3.20;;;1.15;;
38208;SDS011;24016;52.102;11.584;2022-07-05T14:12:57;3.58;;;1.00;;
38208;SDS011;24016;52.102;11.584;2022-07-05T14:15:22;5.13;;;1.17;;
38208;SDS011;24016;52.102;11.584;2022-07-05T14:17:48;2.60;;;1.02;;
38208;SDS011;24016;52.102;11.584;2022-07-05T14:20:13;3.58;;;1.00;;
38208;SDS011;24016;52.102;11.584;2022-07-05T14:22:39;1.42;;;1.15;;
38208;SDS011;24016;52.102;11.584;2022-07-05T14:25:04;1.60;;;0.95;;
38208;SDS011;24016;52.102;11.584;2022-07-05T14:27:30;2.33;;;1.10;;
38208;SDS011;24016;52.102;11.584;2022-07-05T14:29:56;4.05;;;1.40;;
38208;SDS011;24016;52.102;11.584;2022-07-05T14:32:22;1.80;;;1.05;;
38208;SDS011;24016;52.102;11.584;2022-07-05T14:34:48;4.75;;;1.00;;
38208;SDS011;24016;52.102;11.584;2022-07-05T14:37:13;2.00;;;1.00;;
38208;SDS011;24016;52.102;11.584;2022-07-05T14:39:39;3.25;;;1.10;;
38208;SDS011;24016;52.102;11.584;2022-07-05T14:42:05;2.30;;;1.00;;
38208;SDS011;24016;52.102;11.584;2022-07-05T14:44:30;2.35;;;1.10;;
38208;SDS011;24016;52.102;11.584;2022-07-05T14:46:56;2.95;;;1.25;;
38208;SDS011;24016;52.102;11.584;2022-07-05T14:49:21;1.85;;;1.10;;
38208;SDS011;24016;52.102;11.584;2022-07-05T14:51:47;1.77;;;1.08;;
38208;SDS011;24016;52.102;11.584;2022-07-05T14:54:12;3.30;;;1.00;;
38208;SDS011;24016;52.102;11.584;2022-07-05T14:56:38;1.70;;;1.10;;
38208;SDS011;24016;52.102;11.584;2022-07-05T14:59:04;6.03;;;1.08;;